Time;durP1;ratioP1;P1;durP2;ratioP2;P2;SDS_P1;SDS_P2;PMS_P1;PMS_P2;Temp;Humidity;BMP_temperature;BMP_pressure;BME280_temperature;BME280_humidity;BME280_pressure;Samples;Min_cycle;Max_cycle;Signal;HPM_P1;HPM_P2
2022/11/02 00:00:21;;;;;;;7.35;2.13;;;;;;;9.69;100.00;101371.63;5053812;28;20033;-82
2022/11/02 00:02:46;;;;;;;13.30;1.90;;;;;;;9.48;100.00;101403.38;5053332;28;20083;-82
2022/11/02 00:05:13;;;;;;;3.80;1.00;;;;;;;9.22;100.00;101389.44;5053577;28;20041;-80
2022/11/02 00:07:39;;;;;;;4.97;1.40;;;;;;;9.00;100.00;101390.19;5052984;28;20483;-87
2022/11/02 00:10:06;;;;;;;3.90;1.17;;;;;;;8.82;100.00;101376.50;5053044;28;20104;-80
2022/11/02 00:12:31;;;;;;;5.50;1.50;;;;;;;8.65;100.00;101370.66;5051620;28;20037;-79
2022/11/02 00:14:56;;;;;;;5.78;1.48;;;;;;;8.57;100.00;101390.72;5052927;28;20350;-80
2022/11/02 00:17:22;;;;;;;8.43;1.35;;;;;;;8.45;100.00;101395.16;5052949;28;20518;-81
2022/11/02 00:19:48;;;;;;;4.90;0.95;;;;;;;8.34;100.00;101368.53;5052291;28;20036;-80
2022/11/02 00:22:13;;;;;;;1.95;0.88;;;;;;;8.25;100.00;101360.25;5053046;28;20116;-79
2022/11/02 00:24:39;;;;;;;4.70;1.20;;;;;;;8.21;100.00;101342.03;5052556;28;20033;-79
2022/11/02 00:27:04;;;;;;;6.05;1.75;;;;;;;8.26;100.00;101318.72;5052419;28;20029;-79
2022/11/02 00:29:30;;;;;;;7.13;1.13;;;;;;;8.30;100.00;101312.25;5052757;28;20037;-79
2022/11/02 00:31:55;;;;;;;7.93;1.60;;;;;;;8.33;100.00;101319.97;5052234;28;20033;-78
2022/11/02 00:34:20;;;;;;;7.25;1.30;;;;;;;8.36;100.00;101322.38;5053090;28;20045;-80
2022/11/02 00:36:46;;;;;;;5.72;1.63;;;;;;;8.36;100.00;101325.03;5052258;28;20135;-79
2022/11/02 00:39:11;;;;;;;7.30;1.30;;;;;;;8.35;100.00;101331.28;5052776;28;20028;-79
2022/11/02 00:41:37;;;;;;;5.78;1.40;;;;;;;8.34;100.00;101326.09;5052665;28;20040;-79
2022/11/02 00:44:02;;;;;;;3.60;0.80;;;;;;;8.28;100.00;101330.03;5050834;28;20071;-79
2022/11/02 00:46:28;;;;;;;7.07;1.02;;;;;;;8.24;100.00;101321.47;5052405;28;20525;-79
2022/11/02 00:48:53;;;;;;;5.85;0.90;;;;;;;8.20;100.00;101327.13;5052172;28;20052;-79
2022/11/02 00:51:18;;;;;;;5.75;1.10;;;;;;;8.18;100.00;101327.22;5052512;28;20037;-79
2022/11/02 00:53:44;;;;;;;4.22;0.85;;;;;;;8.14;100.00;101324.91;5052346;28;20082;-85
2022/11/02 00:56:09;;;;;;;7.20;1.02;;;;;;;8.11;100.00;101326.81;5052313;28;20044;-79
2022/11/02 00:58:34;;;;;;;4.35;1.02;;;;;;;8.09;100.00;101338.47;5052106;28;20033;-80
2022/11/02 01:01:06;;;;;;;5.32;1.35;;;;;;;8.03;100.00;101337.13;5051569;28;20033;-79
2022/11/02 01:03:32;;;;;;;5.68;1.02;;;;;;;8.02;100.00;101324.00;5052581;28;20055;-79
2022/11/02 01:05:57;;;;;;;9.45;1.70;;;;;;;8.00;100.00;101329.41;5051805;28;20117;-80
2022/11/02 01:08:23;;;;;;;12.02;1.30;;;;;;;7.94;100.00;101330.69;5052370;28;20118;-80
2022/11/02 01:10:48;;;;;;;7.22;1.08;;;;;;;7.91;100.00;101335.34;5051739;28;20287;-81
2022/11/02 01:13:15;;;;;;;6.63;1.70;;;;;;;7.86;100.00;101338.31;5052350;28;20438;-80
2022/11/02 01:15:40;;;;;;;6.95;1.30;;;;;;;7.80;100.00;101338.78;5052303;28;20028;-81
2022/11/02 01:18:06;;;;;;;8.98;1.27;;;;;;;7.77;100.00;101339.00;5051996;28;20104;-81
2022/11/02 01:20:31;;;;;;;13.93;1.40;;;;;;;7.71;100.00;101329.66;5052369;28;20120;-81
2022/11/02 01:22:58;;;;;;;9.10;1.38;;;;;;;7.68;100.00;101337.00;5051779;28;20033;-81
2022/11/02 01:25:23;;;;;;;10.30;1.17;;;;;;;7.62;100.00;101335.63;5052475;28;20115;-82
2022/11/02 01:27:49;;;;;;;14.43;1.80;;;;;;;7.63;100.00;101331.16;5051955;28;20435;-82
2022/11/02 01:30:14;;;;;;;10.45;1.35;;;;;;;7.61;100.00;101323.31;5051759;28;20465;-82
2022/11/02 01:32:39;;;;;;;7.85;1.23;;;;;;;7.67;100.00;101337.94;5050774;28;20075;-81
2022/11/02 01:35:05;;;;;;;5.78;0.90;;;;;;;7.68;100.00;101331.69;5051056;28;20037;-80
2022/11/02 01:37:30;;;;;;;9.30;1.50;;;;;;;7.73;100.00;101333.06;5052801;28;20035;-80
2022/11/02 01:39:55;;;;;;;13.52;1.63;;;;;;;7.76;100.00;101327.56;5051661;28;20037;-81
2022/11/02 01:42:23;;;;;;;10.25;1.55;;;;;;;7.76;100.00;101327.56;5051092;28;20063;-82
2022/11/02 01:44:49;;;;;;;9.13;2.03;;;;;;;7.87;100.00;101313.53;5052059;28;20083;-82
2022/11/02 01:47:27;;;;;;;6.72;1.42;;;;;;;7.91;100.00;101315.00;5051817;28;20458;-82
2022/11/02 01:50:00;;;;;;;12.57;2.10;;;;;;;8.00;100.00;101300.25;5051645;28;20025;-81
2022/11/02 01:52:33;;;;;;;12.20;1.85;;;;;;;8.07;100.00;101313.91;5052193;28;20053;-81
2022/11/02 01:55:08;;;;;;;12.82;1.70;;;;;;;8.10;100.00;101317.16;5051506;28;20501;-81
2022/11/02 01:57:34;;;;;;;11.73;1.70;;;;;;;8.20;100.00;101320.00;5052188;28;20043;-80
2022/11/02 02:00:08;;;;;;;5.70;1.58;;;;;;;8.26;100.00;101326.66;5051782;28;20032;-81
2022/11/02 02:02:38;;;;;;;7.30;1.70;;;;;;;8.38;100.00;101325.75;5051681;28;20358;-80
2022/11/02 02:05:07;;;;;;;18.70;3.00;;;;;;;8.46;100.00;101343.78;5051587;28;20385;-81
2022/11/02 02:07:35;;;;;;;11.27;1.30;;;;;;;8.53;100.00;101338.91;5051887;28;20033;-81
2022/11/02 02:10:01;;;;;;;6.57;1.48;;;;;;;8.61;100.00;101347.13;5051240;28;20033;-81
2022/11/02 02:12:28;;;;;;;8.95;1.50;;;;;;;8.68;100.00;101334.25;5055252;28;20541;-80
2022/11/02 02:14:53;;;;;;;10.30;1.38;;;;;;;8.69;100.00;101325.31;5055387;28;20048;-80
2022/11/02 02:17:46;;;;;;;6.85;1.63;;;;;;;8.71;100.00;101324.25;5054848;28;20037;-80
2022/11/02 02:20:30;;;;;;;7.18;1.73;;;;;;;8.72;100.00;101325.94;5054751;28;20549;-80
2022/11/02 02:23:24;;;;;;;8.43;1.52;;;;;;;8.72;100.00;101331.25;5054790;28;20031;-81
2022/11/02 02:25:57;;;;;;;10.40;1.95;;;;;;;8.77;100.00;101334.41;5055431;28;20051;-80
2022/11/02 02:28:39;;;;;;;9.55;2.30;;;;;;;8.80;100.00;101315.59;5055409;28;20037;-81
2022/11/02 02:31:27;;;;;;;9.85;1.55;;;;;;;8.87;100.00;101331.91;5055030;28;20036;-80
2022/11/02 02:33:58;;;;;;;11.88;1.55;;;;;;;8.92;100.00;101339.53;5054805;28;20086;-80
2022/11/02 02:36:30;;;;;;;10.27;2.15;;;;;;;8.92;100.00;101337.69;5055209;28;20029;-80
2022/11/02 02:38:58;;;;;;;10.48;1.60;;;;;;;8.87;100.00;101345.19;5055228;28;20025;-80
2022/11/02 02:41:40;;;;;;;8.82;1.60;;;;;;;8.86;100.00;101329.38;5054949;28;20055;-80
2022/11/02 02:44:13;;;;;;;6.88;1.70;;;;;;;8.80;100.00;101317.41;5054584;28;20104;-79
2022/11/02 02:46:52;;;;;;;9.75;2.00;;;;;;;8.80;100.00;101331.50;5054920;28;20033;-80
2022/11/02 02:49:22;;;;;;;5.47;1.50;;;;;;;8.80;100.00;101330.69;5054775;28;20377;-80
2022/11/02 02:51:49;;;;;;;10.10;1.40;;;;;;;8.76;100.00;101332.72;5054744;28;20033;-80
2022/11/02 02:54:20;;;;;;;9.40;1.70;;;;;;;8.73;100.00;101322.34;5054372;28;20029;-80
2022/11/02 02:56:56;;;;;;;12.10;2.00;;;;;;;8.64;100.00;101326.53;5054703;28;20025;-80
2022/11/02 02:59:26;;;;;;;9.73;1.88;;;;;;;8.63;100.00;101330.13;5054503;28;20037;-80
2022/11/02 03:01:53;;;;;;;13.07;2.55;;;;;;;8.60;100.00;101321.56;5054807;28;20029;-80
2022/11/02 03:04:19;;;;;;;8.98;1.70;;;;;;;8.60;100.00;101338.31;5054129;28;20029;-79
2022/11/02 03:06:50;;;;;;;9.38;1.77;;;;;;;8.63;100.00;101332.78;5055036;28;20060;-79
2022/11/02 03:09:37;;;;;;;7.55;1.40;;;;;;;8.67;100.00;101343.16;5053876;28;20348;-80
2022/11/02 03:12:32;;;;;;;8.80;2.20;;;;;;;8.71;100.00;101356.09;5054045;28;20025;-80
2022/11/02 03:15:19;;;;;;;9.50;1.90;;;;;;;8.71;100.00;101361.38;5054497;28;20041;-79
2022/11/02 03:18:00;;;;;;;11.52;2.45;;;;;;;8.78;100.00;101369.75;5054856;28;20415;-79
2022/11/02 03:20:42;;;;;;;11.80;2.00;;;;;;;8.88;100.00;101361.94;5054076;28;20033;-79
2022/11/02 03:23:24;;;;;;;8.38;2.13;;;;;;;8.90;100.00;101354.72;5053097;28;20119;-79
2022/11/02 03:26:17;;;;;;;12.38;2.00;;;;;;;8.93;100.00;101360.63;5054398;28;20072;-80
2022/11/02 03:29:10;;;;;;;10.90;2.10;;;;;;;8.95;100.00;101374.63;5054470;28;20033;-79
2022/11/02 03:31:41;;;;;;;13.65;2.20;;;;;;;8.99;100.00;101377.91;5054478;28;20033;-79
2022/11/02 03:34:12;;;;;;;12.63;2.38;;;;;;;9.00;100.00;101376.94;5053580;28;20053;-80
2022/11/02 03:36:53;;;;;;;12.48;2.45;;;;;;;9.03;100.00;101378.50;5053851;28;20108;-78
2022/11/02 03:39:26;;;;;;;13.77;2.40;;;;;;;9.03;100.00;101392.63;5053349;28;20481;-78
2022/11/02 03:41:54;;;;;;;14.77;1.98;;;;;;;9.04;100.00;101402.28;5054155;28;20036;-79
2022/11/02 03:44:23;;;;;;;12.40;2.75;;;;;;;9.09;100.00;101401.94;5053525;28;20151;-79
2022/11/02 03:46:53;;;;;;;11.75;2.17;;;;;;;9.11;100.00;101408.00;5053737;28;20028;-79
2022/11/02 03:49:20;;;;;;;11.60;2.58;;;;;;;9.14;100.00;101421.03;5053249;28;20021;-79
2022/11/02 03:51:46;;;;;;;15.85;2.53;;;;;;;9.18;100.00;101423.34;5053777;28;20543;-81
2022/11/02 03:54:26;;;;;;;13.57;2.63;;;;;;;9.19;100.00;101429.50;5053400;28;20029;-81
2022/11/02 03:56:55;;;;;;;19.08;3.03;;;;;;;9.13;100.00;101428.13;5053736;28;20032;-80
2022/11/02 03:59:21;;;;;;;15.70;2.55;;;;;;;9.10;100.00;101435.50;5051882;28;20025;-81
2022/11/02 04:01:49;;;;;;;21.80;2.95;;;;;;;9.14;100.00;101445.75;5053634;28;20032;-79
2022/11/02 04:04:15;;;;;;;21.17;3.67;;;;;;;9.17;100.00;101444.69;5053253;28;20029;-79
2022/11/02 04:06:43;;;;;;;12.98;2.53;;;;;;;9.11;100.00;101472.53;5053520;28;20103;-80
2022/11/02 04:09:10;;;;;;;15.18;2.40;;;;;;;9.02;100.00;101473.25;5053315;28;20029;-85
2022/11/02 04:14:37;;;;;;;12.23;1.77;;;;;;;8.88;100.00;101482.19;5052942;28;20397;-78
2022/11/02 04:19:52;;;;;;;10.68;1.98;;;;;;;8.77;100.00;101480.31;5053364;28;20405;-79
2022/11/02 04:25:19;;;;;;;12.63;1.75;;;;;;;8.72;100.00;101482.47;5053093;28;20044;-79
2022/11/02 04:27:46;;;;;;;22.35;4.10;;;;;;;8.75;100.00;101498.19;5053079;28;20111;-78
2022/11/02 04:30:14;;;;;;;15.40;2.28;;;;;;;8.80;100.00;101506.63;5052565;28;20033;-80
2022/11/02 04:35:29;;;;;;;13.73;2.17;;;;;;;8.90;100.00;101513.97;5052587;28;20131;-79
2022/11/02 04:40:39;;;;;;;9.35;2.10;;;;;;;9.03;100.00;101529.81;5052934;28;20044;-79
2022/11/02 04:43:05;;;;;;;21.23;2.97;;;;;;;9.09;100.00;101538.19;5051586;28;20029;-80
2022/11/02 04:45:30;;;;;;;12.38;2.22;;;;;;;9.08;100.00;101536.50;5052127;28;20488;-79
2022/11/02 04:48:00;;;;;;;11.32;2.20;;;;;;;9.12;100.00;101540.63;5052407;28;20033;-79
2022/11/02 04:50:25;;;;;;;17.42;2.17;;;;;;;9.24;100.00;101543.31;5052160;28;20465;-79
2022/11/02 04:52:58;;;;;;;15.32;2.00;;;;;;;9.29;100.00;101541.19;5052831;28;20075;-79
2022/11/02 04:55:24;;;;;;;11.38;1.83;;;;;;;9.40;100.00;101546.53;5052307;28;20033;-79
2022/11/02 04:57:50;;;;;;;8.05;1.92;;;;;;;9.51;100.00;101543.94;5052456;28;20029;-79
2022/11/02 05:00:16;;;;;;;12.40;1.85;;;;;;;9.49;100.00;101564.47;5052218;28;20162;-80
2022/11/02 05:02:41;;;;;;;13.20;1.92;;;;;;;9.49;100.00;101558.28;5052675;28;20059;-79
2022/11/02 05:05:07;;;;;;;16.92;2.15;;;;;;;9.58;100.00;101570.03;5052672;28;20044;-79
2022/11/02 05:07:32;;;;;;;8.32;1.67;;;;;;;9.65;100.00;101582.75;5052252;28;20533;-80
2022/11/02 05:09:58;;;;;;;6.65;1.63;;;;;;;9.70;100.00;101580.59;5052748;28;20039;-79
2022/11/02 05:12:23;;;;;;;12.48;2.28;;;;;;;9.69;100.00;101602.81;5052177;28;20029;-79
2022/11/02 05:14:48;;;;;;;10.13;1.50;;;;;;;9.67;100.00;101598.56;5052375;28;20033;-81
2022/11/02 05:17:15;;;;;;;9.60;2.30;;;;;;;9.67;100.00;101606.53;5052850;28;20039;-81
2022/11/02 05:19:40;;;;;;;14.55;1.75;;;;;;;9.78;100.00;101606.59;5052197;28;20465;-81
2022/11/02 05:22:06;;;;;;;9.80;1.83;;;;;;;9.78;100.00;101601.28;5052320;28;20044;-81
2022/11/02 05:24:31;;;;;;;10.10;1.63;;;;;;;9.76;100.00;101613.81;5052302;28;20381;-81
2022/11/02 05:26:56;;;;;;;7.07;1.48;;;;;;;9.69;100.00;101615.25;5053251;28;20069;-81
2022/11/02 05:29:21;;;;;;;11.25;1.98;;;;;;;9.65;100.00;101633.22;5052526;28;20029;-81
2022/11/02 05:31:47;;;;;;;9.88;1.63;;;;;;;9.70;100.00;101630.22;5053456;28;20044;-81
2022/11/02 05:34:12;;;;;;;13.43;2.30;;;;;;;9.74;100.00;101641.50;5053055;28;20055;-81
2022/11/02 05:36:38;;;;;;;9.65;1.33;;;;;;;9.71;100.00;101630.13;5052675;28;20103;-80
2022/11/02 05:39:03;;;;;;;12.68;1.42;;;;;;;9.73;100.00;101650.41;5052755;28;20380;-80
2022/11/02 05:41:28;;;;;;;11.50;1.92;;;;;;;9.75;100.00;101649.34;5052040;28;20037;-81
2022/11/02 05:43:53;;;;;;;10.13;1.80;;;;;;;9.78;100.00;101650.91;5052083;28;20078;-82
2022/11/02 05:46:19;;;;;;;5.38;1.23;;;;;;;9.69;100.00;101663.94;5054121;28;20033;-81
2022/11/02 05:48:44;;;;;;;9.48;1.65;;;;;;;9.78;100.00;101662.41;5055354;28;20032;-82
2022/11/02 05:51:09;;;;;;;6.93;1.83;;;;;;;9.82;100.00;101674.53;5056027;28;20071;-82
2022/11/02 05:53:37;;;;;;;7.50;1.38;;;;;;;9.86;100.00;101673.31;5055364;28;20111;-82
2022/11/02 05:56:04;;;;;;;9.00;1.50;;;;;;;9.89;100.00;101683.72;5056038;28;20067;-81
2022/11/02 05:58:31;;;;;;;7.50;1.55;;;;;;;9.89;100.00;101686.38;5054439;28;20025;-82
2022/11/02 06:01:04;;;;;;;11.45;1.83;;;;;;;9.92;100.00;101687.13;5054597;28;20086;-82
2022/11/02 06:03:31;;;;;;;11.45;1.67;;;;;;;9.87;100.00;101693.63;5054283;28;20029;-82
2022/11/02 06:06:05;;;;;;;8.32;1.55;;;;;;;9.87;100.00;101698.09;5056168;28;20028;-83
2022/11/02 06:08:35;;;;;;;11.00;1.70;;;;;;;9.90;100.00;101697.88;5055589;28;20033;-83
2022/11/02 06:11:05;;;;;;;9.75;1.95;;;;;;;9.88;100.00;101710.41;5055746;28;20032;-81
2022/11/02 06:13:30;;;;;;;12.40;2.90;;;;;;;9.78;100.00;101720.88;5055338;28;20458;-80
2022/11/02 06:16:00;;;;;;;5.95;1.00;;;;;;;9.84;100.00;101723.09;5055472;28;20037;-82
2022/11/02 06:18:26;;;;;;;14.25;2.03;;;;;;;9.91;100.00;101734.09;5054549;28;20029;-80
2022/11/02 06:20:51;;;;;;;15.73;2.22;;;;;;;9.95;100.00;101729.44;5055314;28;20033;-81
2022/11/02 06:23:17;;;;;;;9.20;1.70;;;;;;;9.91;100.00;101731.44;5055430;28;20086;-80
2022/11/02 06:25:49;;;;;;;12.82;1.55;;;;;;;9.97;100.00;101751.41;5054933;28;20064;-82
2022/11/02 06:28:14;;;;;;;10.73;1.80;;;;;;;9.97;100.00;101749.63;5055164;28;20051;-80
2022/11/02 06:30:41;;;;;;;9.98;1.83;;;;;;;10.01;100.00;101756.41;5053701;28;20481;-81
2022/11/02 06:33:07;;;;;;;8.02;1.45;;;;;;;10.04;100.00;101765.97;5055218;28;20049;-82
2022/11/02 06:35:32;;;;;;;23.08;3.13;;;;;;;10.06;100.00;101769.34;5054511;28;20033;-82
2022/11/02 06:37:57;;;;;;;11.35;1.40;;;;;;;10.02;100.00;101770.56;5055139;28;20035;-81
2022/11/02 06:40:23;;;;;;;11.85;1.50;;;;;;;10.08;100.00;101780.75;5054700;28;20043;-81
2022/11/02 06:42:54;;;;;;;15.02;1.80;;;;;;;10.09;100.00;101785.09;5053668;28;20067;-83
2022/11/02 06:45:19;;;;;;;13.18;2.88;;;;;;;10.06;100.00;101788.84;5053807;28;20032;-81
2022/11/02 06:47:47;;;;;;;8.32;1.67;;;;;;;10.03;100.00;101801.47;5053697;28;20473;-82
2022/11/02 06:50:12;;;;;;;12.20;1.95;;;;;;;10.04;100.00;101801.38;5054524;28;20040;-82
2022/11/02 06:52:46;;;;;;;11.18;1.45;;;;;;;10.04;100.00;101813.81;5054475;28;20029;-82
2022/11/02 06:55:13;;;;;;;9.02;1.48;;;;;;;10.01;100.00;101820.22;5054351;28;20054;-82
2022/11/02 06:57:40;;;;;;;12.50;2.15;;;;;;;9.96;100.00;101816.22;5054284;28;20040;-82
2022/11/02 07:00:08;;;;;;;7.63;1.73;;;;;;;9.99;100.00;101816.81;5054801;28;20040;-81
2022/11/02 07:02:34;;;;;;;8.43;1.92;;;;;;;10.00;100.00;101834.47;5054353;28;20032;-84
2022/11/02 07:05:01;;;;;;;9.48;1.70;;;;;;;9.97;100.00;101828.53;5054566;28;20115;-83
2022/11/02 07:07:26;;;;;;;8.93;1.48;;;;;;;9.97;100.00;101842.69;5053675;28;20064;-83
2022/11/02 07:09:52;;;;;;;6.72;1.48;;;;;;;10.00;100.00;101855.75;5054417;28;20052;-82
2022/11/02 07:12:17;;;;;;;11.55;1.63;;;;;;;9.91;100.00;101853.72;5054726;28;20045;-83
2022/11/02 07:14:42;;;;;;;7.88;1.30;;;;;;;9.79;100.00;101857.28;5053120;28;20381;-84
2022/11/02 07:17:08;;;;;;;10.75;1.58;;;;;;;9.74;100.00;101868.22;5053203;28;20469;-85
2022/11/02 07:19:33;;;;;;;10.25;1.70;;;;;;;9.82;100.00;101868.56;5054124;28;20466;-84
2022/11/02 07:21:58;;;;;;;9.60;1.88;;;;;;;9.91;100.00;101877.66;5054543;28;20064;-82
2022/11/02 07:24:24;;;;;;;11.25;1.52;;;;;;;9.99;100.00;101872.66;5054261;28;20057;-83
2022/11/02 07:26:49;;;;;;;11.65;2.35;;;;;;;10.05;100.00;101874.88;5054034;28;20057;-84
2022/11/02 07:29:18;;;;;;;11.38;1.90;;;;;;;10.10;100.00;101877.19;5052832;28;20484;-84
2022/11/02 07:31:44;;;;;;;11.65;1.67;;;;;;;10.14;100.00;101884.00;5053523;28;20234;-82
2022/11/02 07:34:10;;;;;;;10.35;1.73;;;;;;;10.10;100.00;101881.69;5054483;28;20157;-84
2022/11/02 07:36:36;;;;;;;11.80;2.10;;;;;;;10.10;100.00;101889.66;5053972;28;20527;-84
2022/11/02 07:39:02;;;;;;;8.60;1.65;;;;;;;10.10;100.00;101893.16;5054275;28;20029;-82
2022/11/02 07:41:27;;;;;;;14.65;2.20;;;;;;;10.08;100.00;101908.38;5053740;28;20029;-82
2022/11/02 07:43:52;;;;;;;13.88;1.90;;;;;;;10.05;100.00;101898.81;5053234;28;20071;-83
2022/11/02 07:46:18;;;;;;;11.02;1.85;;;;;;;10.04;100.00;101898.91;5053905;28;20492;-82
2022/11/02 07:48:43;;;;;;;13.75;1.88;;;;;;;9.98;100.00;101915.31;5053484;28;20118;-82
2022/11/02 07:51:10;;;;;;;11.05;1.88;;;;;;;9.90;100.00;101907.88;5053697;28;20037;-82
2022/11/02 07:53:35;;;;;;;13.45;1.75;;;;;;;9.88;100.00;101901.81;5053532;28;20439;-79
2022/11/02 07:56:04;;;;;;;15.75;2.22;;;;;;;10.03;100.00;101915.81;5053341;28;20033;-81
2022/11/02 07:58:30;;;;;;;16.42;2.47;;;;;;;10.19;100.00;101905.78;5053873;28;20029;-81
2022/11/02 08:00:59;;;;;;;10.95;1.98;;;;;;;10.34;100.00;101916.31;5053398;28;20041;-81
2022/11/02 08:03:24;;;;;;;10.02;1.90;;;;;;;10.51;100.00;101923.06;5053833;28;20039;-81
2022/11/02 08:05:50;;;;;;;9.02;1.73;;;;;;;10.71;100.00;101929.59;5051566;28;20455;-79
2022/11/02 08:08:18;;;;;;;13.43;2.03;;;;;;;10.85;100.00;101931.22;5052810;28;20025;-81
2022/11/02 08:10:45;;;;;;;10.65;1.55;;;;;;;10.96;100.00;101933.94;5052639;28;20116;-81
2022/11/02 08:13:13;;;;;;;11.73;2.00;;;;;;;11.08;100.00;101943.66;5053462;28;20039;-81
2022/11/02 08:15:38;;;;;;;11.07;1.95;;;;;;;11.16;100.00;101943.09;5052015;28;20060;-81
2022/11/02 08:18:07;;;;;;;11.38;1.92;;;;;;;11.18;100.00;101938.50;5052746;28;20060;-83
2022/11/02 08:20:34;;;;;;;8.80;1.83;;;;;;;11.17;100.00;101939.47;5053144;28;20051;-80
2022/11/02 08:23:00;;;;;;;7.70;1.58;;;;;;;11.18;100.00;101946.50;5052602;28;20025;-82
2022/11/02 08:25:26;;;;;;;12.35;1.67;;;;;;;11.19;100.00;101937.53;5053170;28;20065;-81
2022/11/02 08:27:55;;;;;;;9.32;1.80;;;;;;;11.17;100.00;101946.63;5052918;28;20072;-81
2022/11/02 08:30:20;;;;;;;7.60;1.83;;;;;;;11.18;100.00;101946.50;5052500;28;20154;-81
2022/11/02 08:32:46;;;;;;;15.63;2.25;;;;;;;11.23;100.00;101956.81;5052376;28;20553;-81
2022/11/02 08:35:11;;;;;;;15.48;3.00;;;;;;;11.34;100.00;101958.66;5051540;28;20393;-81
2022/11/02 08:37:36;;;;;;;10.52;2.10;;;;;;;11.36;100.00;101954.03;5053241;28;20082;-82
2022/11/02 08:40:02;;;;;;;11.55;1.80;;;;;;;11.44;100.00;101957.81;5052334;28;20320;-81
2022/11/02 08:42:27;;;;;;;12.45;1.90;;;;;;;11.56;100.00;101958.69;5052886;28;20112;-79
2022/11/02 08:44:53;;;;;;;9.10;2.00;;;;;;;11.62;100.00;101968.88;5052516;28;20060;-82
2022/11/02 08:47:18;;;;;;;8.90;1.80;;;;;;;11.67;100.00;101960.53;5052819;28;20037;-80
2022/11/02 08:49:45;;;;;;;12.63;1.75;;;;;;;11.67;100.00;101967.69;5051654;28;20033;-79
2022/11/02 08:52:11;;;;;;;11.00;1.73;;;;;;;11.65;100.00;101976.63;5052669;28;20036;-79
2022/11/02 08:54:36;;;;;;;11.20;1.90;;;;;;;11.76;100.00;101981.16;5052427;28;20028;-80
2022/11/02 08:57:01;;;;;;;5.88;1.60;;;;;;;11.78;100.00;101981.88;5050827;28;20035;-80
2022/11/02 08:59:27;;;;;;;12.27;1.98;;;;;;;11.92;100.00;101979.97;5052672;28;20091;-80
2022/11/02 09:01:52;;;;;;;12.20;1.60;;;;;;;12.09;100.00;101976.84;5051960;28;20094;-78
2022/11/02 09:04:17;;;;;;;9.60;1.90;;;;;;;12.23;100.00;101985.59;5052598;28;20025;-80
2022/11/02 09:06:43;;;;;;;9.75;1.63;;;;;;;12.33;97.29;101987.41;5052420;28;20110;-78
2022/11/02 09:09:08;;;;;;;9.68;1.67;;;;;;;12.58;95.88;101982.72;5052094;28;20036;-80
2022/11/02 09:11:34;;;;;;;13.68;1.90;;;;;;;12.74;89.38;101981.50;5052852;28;20025;-82
2022/11/02 09:14:00;;;;;;;6.78;1.70;;;;;;;12.85;90.14;101990.34;5052170;28;20033;-81
2022/11/02 09:16:26;;;;;;;10.18;1.73;;;;;;;12.87;89.48;102003.56;5052544;28;20048;-79
2022/11/02 09:18:51;;;;;;;14.13;2.00;;;;;;;12.92;86.81;101990.66;5051869;28;20358;-79
2022/11/02 09:21:16;;;;;;;14.95;1.92;;;;;;;12.85;90.36;102001.03;5054417;28;20037;-79
2022/11/02 09:23:42;;;;;;;6.35;1.73;;;;;;;13.44;86.79;102001.53;5055235;28;20036;-78
2022/11/02 09:26:07;;;;;;;13.00;2.53;;;;;;;13.73;84.78;101993.72;5056122;28;20193;-76
2022/11/02 09:28:36;;;;;;;15.48;2.10;;;;;;;13.89;83.51;101997.75;5056352;28;20125;-79
2022/11/02 09:31:03;;;;;;;11.23;1.80;;;;;;;14.41;78.66;102014.59;5055977;28;20064;-77
2022/11/02 09:33:28;;;;;;;10.73;2.00;;;;;;;14.51;79.54;102019.13;5056307;28;20055;-80
2022/11/02 09:35:54;;;;;;;11.60;1.80;;;;;;;14.54;76.59;102006.31;5055997;28;20119;-80
2022/11/02 09:38:20;;;;;;;11.30;2.17;;;;;;;14.70;76.03;102018.38;5055978;28;20041;-79
2022/11/02 09:40:52;;;;;;;11.77;1.92;;;;;;;14.65;77.86;102017.94;5056260;28;20561;-77
2022/11/02 09:43:43;;;;;;;12.45;1.88;;;;;;;14.40;79.41;102020.91;5056408;28;20032;-78
2022/11/02 09:46:20;;;;;;;9.13;2.10;;;;;;;14.53;77.39;102025.22;5055908;28;20036;-80
2022/11/02 09:48:55;;;;;;;15.25;2.42;;;;;;;14.70;74.65;102024.56;5056309;28;20048;-81
2022/11/02 09:51:43;;;;;;;18.60;2.25;;;;;;;14.62;74.72;102019.06;5056085;28;20057;-80
2022/11/02 09:54:30;;;;;;;13.30;2.30;;;;;;;15.06;75.28;102027.63;5055648;28;20043;-80
2022/11/02 09:57:08;;;;;;;17.48;2.35;;;;;;;14.73;76.32;102010.91;5055453;28;20100;-78
2022/11/02 09:59:33;;;;;;;14.15;2.13;;;;;;;14.98;71.20;102017.56;5055803;28;20033;-80
2022/11/02 10:02:23;;;;;;;11.52;2.03;;;;;;;14.81;73.68;102015.59;5055472;28;20025;-81
2022/11/02 10:05:10;;;;;;;9.70;2.03;;;;;;;14.28;78.07;102020.16;5055867;28;20025;-82
2022/11/02 10:08:09;;;;;;;17.42;2.25;;;;;;;14.24;79.44;102025.94;5055735;28;20032;-81
2022/11/02 10:10:40;;;;;;;20.73;2.33;;;;;;;14.26;82.90;102022.13;5055584;28;20028;-80
2022/11/02 10:13:17;;;;;;;;;;;;;;;14.28;84.96;102020.16;5055362;28;20037;-80
2022/11/02 10:15:54;;;;;;;16.00;2.20;;;;;;;14.32;81.73;102027.97;5055660;28;20004;-80
2022/11/02 10:18:25;;;;;;;11.75;1.80;;;;;;;14.14;83.13;102041.97;5055683;28;20116;-81
2022/11/02 10:20:54;;;;;;;14.35;1.92;;;;;;;13.82;82.86;102026.00;5055650;28;20062;-83
2022/11/02 10:23:38;;;;;;;9.90;2.15;;;;;;;13.55;82.70;102036.25;5054171;28;20036;-80
2022/11/02 10:26:04;;;;;;;10.65;2.20;;;;;;;13.34;86.98;102049.56;5054624;28;20032;-82
2022/11/02 10:28:33;;;;;;;13.02;1.98;;;;;;;13.18;89.42;102043.75;5055089;28;20067;-80
2022/11/02 10:31:01;;;;;;;11.43;1.42;;;;;;;13.10;87.99;102048.91;5054367;28;20495;-81
2022/11/02 10:33:28;;;;;;;10.77;2.10;;;;;;;12.97;87.45;102041.91;5054287;28;20056;-80
2022/11/02 10:36:21;;;;;;;11.98;2.00;;;;;;;12.90;86.69;102056.72;5055255;28;20044;-81
2022/11/02 10:39:00;;;;;;;7.65;1.27;;;;;;;12.94;87.54;102066.16;5055284;28;20033;-79
2022/11/02 10:41:28;;;;;;;14.93;2.10;;;;;;;13.10;89.38;102056.94;5055284;28;20021;-80
2022/11/02 10:44:14;;;;;;;9.13;1.95;;;;;;;13.33;88.33;102055.00;5055166;28;20036;-80
2022/11/02 10:47:01;;;;;;;7.10;1.88;;;;;;;13.58;85.40;102061.88;5058274;28;20043;-81
2022/11/02 10:49:26;;;;;;;18.00;2.22;;;;;;;13.83;84.02;102046.44;5037024;28;20116;-82
2022/11/02 10:51:52;;;;;;;16.80;2.08;;;;;;;13.91;81.48;102057.31;5066555;28;20100;-81
2022/11/02 10:54:18;;;;;;;19.70;2.47;;;;;;;13.69;80.96;102064.50;5074588;28;20032;-80
2022/11/02 10:56:46;;;;;;;13.68;1.83;;;;;;;13.45;81.26;102059.41;5074842;28;20062;-81
2022/11/02 10:59:22;;;;;;;13.18;2.05;;;;;;;13.40;81.72;102056.22;5074013;28;20024;-81
2022/11/02 11:01:50;;;;;;;11.23;2.20;;;;;;;13.47;80.27;102051.25;5073047;28;20476;-82
2022/11/02 11:04:26;;;;;;;11.25;2.60;;;;;;;13.49;77.48;102041.25;5054443;28;20021;-81
2022/11/02 11:06:53;;;;;;;11.15;1.92;;;;;;;13.40;83.25;102042.88;5066493;28;20067;-81
2022/11/02 11:09:21;;;;;;;117.30;54.92;;;;;;;13.42;84.44;102043.59;5054237;28;20061;-81
2022/11/02 11:12:06;;;;;;;16.80;6.95;;;;;;;13.50;91.00;102034.94;5055110;28;20025;-81
2022/11/02 11:14:43;;;;;;;72.93;33.78;;;;;;;13.67;93.80;102037.00;5054787;28;20045;-80
2022/11/02 11:17:22;;;;;;;33.78;14.85;;;;;;;13.82;94.75;102031.34;5053920;28;20029;-79
2022/11/02 11:19:52;;;;;;;72.03;31.17;;;;;;;13.86;94.59;102033.63;5054100;28;20055;-81
2022/11/02 11:22:31;;;;;;;106.23;55.50;;;;;;;13.85;95.17;102039.97;5053887;28;20032;-80
2022/11/02 11:25:11;;;;;;;223.52;121.75;;;;;;;14.01;93.87;102044.84;5053717;28;20171;-79
2022/11/02 11:27:57;;;;;;;167.13;79.55;;;;;;;14.04;92.51;102046.41;5054203;28;20100;-80
2022/11/02 11:30:26;;;;;;;31.90;14.13;;;;;;;13.96;94.10;102064.94;5053493;28;20061;-80
2022/11/02 11:32:53;;;;;;;20.25;3.15;;;;;;;13.80;91.57;102049.38;5053845;28;20386;-82
2022/11/02 11:35:19;;;;;;;10.35;2.85;;;;;;;13.85;94.12;102063.19;5052974;28;20032;-82
2022/11/02 11:37:51;;;;;;;46.15;20.08;;;;;;;13.95;97.12;102052.56;5054039;28;20033;-83
2022/11/02 11:40:20;;;;;;;26.65;11.27;;;;;;;14.16;96.71;102031.13;5053396;28;20033;-81
2022/11/02 11:42:49;;;;;;;23.77;9.80;;;;;;;14.23;93.58;102045.66;5048908;28;20033;-81